Time;durP1;ratioP1;P1;durP2;ratioP2;P2;SDS_P1;SDS_P2;PMS_P1;PMS_P2;Temp;Humidity;BMP_temperature;BMP_pressure;BME280_temperature;BME280_humidity;BME280_pressure;Samples;Min_cycle;Max_cycle;Signal;HPM_P1;HPM_P2
2022/08/18 00:02:08;;;;;;;16.77;9.68;;;22.50;99.90;;;;;;4955312;28;20031;-72
2022/08/18 00:04:37;;;;;;;16.30;8.63;;;22.50;99.90;;;;;;4955478;28;20046;-71
2022/08/18 00:07:09;;;;;;;14.05;7.80;;;22.50;99.90;;;;;;4955367;28;20070;-73
2022/08/18 00:09:36;;;;;;;21.00;8.45;;;22.50;99.90;;;;;;4950912;29;20063;-73
2022/08/18 00:12:06;;;;;;;15.07;8.57;;;22.40;99.90;;;;;;4955348;28;20031;-63
2022/08/18 00:14:32;;;;;;;14.63;7.63;;;22.40;99.90;;;;;;4954782;28;20027;-73
2022/08/18 00:16:59;;;;;;;12.13;7.43;;;22.50;99.90;;;;;;4955318;28;20031;-66
2022/08/18 00:19:25;;;;;;;16.30;6.90;;;22.50;99.90;;;;;;4955368;28;20031;-66
2022/08/18 00:21:51;;;;;;;12.80;7.13;;;22.40;99.90;;;;;;4955182;28;20478;-71
2022/08/18 00:24:17;;;;;;;11.00;6.97;;;22.50;99.90;;;;;;4955188;28;20046;-72
2022/08/18 00:26:43;;;;;;;12.88;6.53;;;22.50;99.90;;;;;;4954678;28;20019;-72
2022/08/18 00:29:08;;;;;;;11.18;6.65;;;22.50;99.90;;;;;;4954888;28;20030;-63
2022/08/18 00:31:35;;;;;;;13.13;6.90;;;22.40;99.90;;;;;;4955031;28;20074;-69
2022/08/18 00:34:01;;;;;;;14.63;7.10;;;22.40;99.90;;;;;;4954855;28;20058;-72
2022/08/18 00:36:27;;;;;;;12.80;6.43;;;22.40;99.90;;;;;;4955016;28;20027;-69
2022/08/18 00:38:53;;;;;;;12.25;7.65;;;22.30;99.90;;;;;;4953343;28;20039;-70
2022/08/18 00:41:19;;;;;;;17.45;7.65;;;22.30;99.90;;;;;;4953394;28;20382;-63
2022/08/18 00:43:50;;;;;;;18.48;7.68;;;22.20;99.90;;;;;;4953020;28;20031;-72
2022/08/18 00:46:26;;;;;;;14.95;8.07;;;22.20;99.90;;;;;;4953265;28;20047;-72
2022/08/18 00:48:52;;;;;;;13.60;7.35;;;22.20;99.90;;;;;;4952550;28;20035;-72
2022/08/18 00:51:33;;;;;;;21.30;7.90;;;22.20;99.90;;;;;;4953139;28;20038;-72
2022/08/18 00:54:05;;;;;;;17.92;7.15;;;22.20;99.90;;;;;;4984292;28;20027;-72
2022/08/18 00:56:42;;;;;;;17.48;7.25;;;22.10;99.90;;;;;;4952938;28;20042;-68
2022/08/18 00:59:33;;;;;;;14.93;7.15;;;22.00;99.90;;;;;;4953226;28;20034;-73
2022/08/18 01:02:03;;;;;;;15.15;7.13;;;22.00;99.90;;;;;;4950522;29;20492;-72
2022/08/18 01:04:43;;;;;;;13.30;7.55;;;22.00;99.90;;;;;;4949864;28;20055;-71
2022/08/18 01:07:20;;;;;;;10.75;6.18;;;22.00;99.90;;;;;;4955272;28;20110;-69
2022/08/18 01:09:48;;;;;;;12.70;7.75;;;22.00;99.90;;;;;;4957010;29;20031;-66
2022/08/18 01:12:14;;;;;;;11.48;7.10;;;21.90;99.90;;;;;;4959809;28;20027;-72
2022/08/18 01:14:40;;;;;;;12.95;7.35;;;22.00;99.90;;;;;;4959008;28;20027;-64
2022/08/18 01:22:41;;;;;;;12.57;7.45;;;21.80;99.90;;;;;;4959469;28;20031;-73
2022/08/18 01:27:55;;;;;;;12.90;7.40;;;21.70;99.90;;;;;;4959095;28;20027;-71
2022/08/18 01:30:24;;;;;;;17.42;7.57;;;21.70;99.90;;;;;;4959464;28;20019;-73
2022/08/18 01:32:51;;;;;;;12.05;7.38;;;21.70;99.90;;;;;;4959241;28;20031;-73
2022/08/18 01:35:20;;;;;;;12.65;7.13;;;21.70;99.90;;;;;;4959234;28;20031;-72
2022/08/18 01:37:46;;;;;;;16.52;8.52;;;21.70;99.90;;;;;;4959331;28;20031;-71
2022/08/18 01:40:14;;;;;;;14.50;8.30;;;21.80;99.90;;;;;;4959310;28;20023;-72
2022/08/18 01:42:44;;;;;;;14.70;7.15;;;21.70;99.90;;;;;;4959181;28;20037;-71
2022/08/18 01:45:12;;;;;;;12.23;7.25;;;21.70;99.90;;;;;;4960491;28;20105;-69
2022/08/18 01:47:39;;;;;;;14.35;7.72;;;21.70;99.90;;;;;;4959074;28;20478;-72
2022/08/18 01:50:06;;;;;;;13.75;8.00;;;21.70;99.90;;;;;;4959061;28;20110;-64
2022/08/18 01:52:34;;;;;;;11.80;6.97;;;21.70;99.90;;;;;;4974072;28;20408;-72
2022/08/18 01:55:01;;;;;;;13.30;7.30;;;21.60;99.90;;;;;;4959189;28;20043;-70
2022/08/18 01:57:29;;;;;;;12.23;6.38;;;21.60;99.90;;;;;;4958856;28;20043;-71
2022/08/18 01:59:55;;;;;;;13.90;7.05;;;21.60;99.90;;;;;;4959050;28;20027;-73
2022/08/18 02:02:24;;;;;;;12.52;7.47;;;21.60;99.90;;;;;;4959176;28;20027;-73
2022/08/18 02:04:58;;;;;;;11.35;7.80;;;21.50;99.90;;;;;;4959033;28;20082;-73
2022/08/18 02:07:24;;;;;;;14.00;7.35;;;21.50;99.90;;;;;;4958931;28;20106;-72
2022/08/18 02:09:50;;;;;;;13.57;7.88;;;21.50;99.90;;;;;;4958878;28;20118;-72
2022/08/18 02:12:15;;;;;;;14.50;7.82;;;21.40;99.90;;;;;;4959432;28;20055;-73
2022/08/18 02:14:42;;;;;;;12.05;7.28;;;21.40;99.90;;;;;;4958683;28;20036;-71
2022/08/18 02:17:10;;;;;;;12.45;7.78;;;21.20;99.90;;;;;;4959041;28;20039;-72
2022/08/18 02:19:40;;;;;;;11.68;7.28;;;21.10;99.90;;;;;;4955447;28;20030;-73
2022/08/18 02:22:08;;;;;;;11.93;8.38;;;21.20;99.90;;;;;;4956029;28;20031;-69
2022/08/18 02:24:34;;;;;;;11.07;6.85;;;21.20;99.90;;;;;;4955973;28;20102;-73
2022/08/18 02:27:00;;;;;;;11.50;7.35;;;21.20;99.90;;;;;;4955813;28;20081;-72
2022/08/18 02:29:26;;;;;;;20.33;7.75;;;21.20;99.90;;;;;;4955677;28;20023;-70
2022/08/18 02:31:52;;;;;;;15.55;7.88;;;21.20;99.90;;;;;;4955772;28;20034;-72
2022/08/18 02:34:18;;;;;;;21.73;7.07;;;21.20;99.90;;;;;;4955663;28;20402;-73
2022/08/18 02:36:44;;;;;;;13.20;7.22;;;21.20;99.90;;;;;;4955668;28;20034;-71
2022/08/18 02:39:10;;;;;;;14.93;7.18;;;21.20;99.90;;;;;;4957333;28;20031;-72
2022/08/18 02:41:36;;;;;;;12.52;6.85;;;21.20;99.90;;;;;;4955640;28;20027;-74
2022/08/18 02:44:03;;;;;;;16.55;7.55;;;21.10;99.90;;;;;;4955238;28;20047;-73
2022/08/18 02:46:29;;;;;;;14.13;6.97;;;21.20;99.90;;;;;;4955619;28;20062;-73
2022/08/18 02:48:55;;;;;;;11.88;8.20;;;21.10;99.90;;;;;;4955576;28;20081;-73
2022/08/18 02:51:21;;;;;;;12.70;7.15;;;21.10;99.90;;;;;;4955435;28;20374;-69
2022/08/18 02:53:47;;;;;;;14.88;7.75;;;21.10;99.90;;;;;;4955283;28;20490;-73
2022/08/18 02:56:31;;;;;;;14.52;7.57;;;21.10;99.90;;;;;;4955147;28;20027;-74
2022/08/18 02:59:00;;;;;;;16.45;7.57;;;21.00;99.90;;;;;;4955327;28;20438;-72
2022/08/18 03:01:29;;;;;;;13.55;7.63;;;21.00;99.90;;;;;;4955763;28;20430;-72
2022/08/18 03:03:56;;;;;;;13.68;7.43;;;20.90;99.90;;;;;;4957936;28;20027;-72
2022/08/18 03:06:23;;;;;;;17.05;8.32;;;20.90;99.90;;;;;;4960108;28;20063;-73
2022/08/18 03:08:50;;;;;;;15.00;8.25;;;20.80;99.90;;;;;;4956249;28;20482;-71
2022/08/18 03:11:19;;;;;;;16.98;8.00;;;20.80;99.90;;;;;;4955786;29;20038;-72
2022/08/18 03:13:45;;;;;;;18.05;8.02;;;20.90;99.90;;;;;;4955414;28;20031;-73
2022/08/18 03:16:12;;;;;;;14.68;8.50;;;20.90;99.90;;;;;;4956287;28;20130;-74
2022/08/18 03:18:40;;;;;;;12.45;7.70;;;20.80;99.90;;;;;;4956260;29;20050;-73
2022/08/18 03:21:08;;;;;;;20.35;9.70;;;20.80;99.90;;;;;;4955901;28;20102;-73
2022/08/18 03:23:35;;;;;;;13.93;8.02;;;20.80;99.90;;;;;;4956045;28;20059;-70
2022/08/18 03:26:01;;;;;;;12.57;8.20;;;20.80;99.90;;;;;;4956055;28;20023;-74
2022/08/18 03:28:27;;;;;;;16.13;9.23;;;20.80;99.90;;;;;;4956082;28;20027;-74
2022/08/18 03:30:54;;;;;;;14.77;9.07;;;20.80;99.90;;;;;;4955264;28;20102;-73
2022/08/18 03:33:20;;;;;;;18.95;8.63;;;20.80;99.90;;;;;;4955939;28;20386;-71
2022/08/18 03:35:46;;;;;;;17.13;10.02;;;20.70;99.90;;;;;;4955476;28;20031;-73
2022/08/18 03:38:11;;;;;;;14.45;9.02;;;20.70;99.90;;;;;;4956047;28;20032;-73
2022/08/18 03:40:37;;;;;;;14.95;8.93;;;20.70;99.90;;;;;;4955468;28;20433;-74
2022/08/18 03:43:05;;;;;;;18.70;9.82;;;20.60;99.90;;;;;;4955353;28;20082;-74
2022/08/18 03:45:32;;;;;;;19.25;8.95;;;20.60;99.90;;;;;;4955429;28;20054;-74
2022/08/18 03:47:59;;;;;;;17.67;9.90;;;20.50;99.90;;;;;;4955281;28;20030;-74
2022/08/18 03:50:26;;;;;;;14.57;8.52;;;20.30;99.90;;;;;;4955115;28;20027;-74
2022/08/18 03:52:53;;;;;;;14.95;9.25;;;20.40;99.90;;;;;;4955341;28;20027;-72
2022/08/18 03:55:18;;;;;;;15.23;8.70;;;20.50;99.90;;;;;;4955358;28;20019;-73
2022/08/18 03:57:44;;;;;;;17.02;8.07;;;20.60;99.90;;;;;;4955083;28;20111;-74
2022/08/18 04:00:12;;;;;;;12.25;8.00;;;20.70;99.90;;;;;;4954914;28;20041;-73
2022/08/18 04:02:38;;;;;;;14.50;8.95;;;21.00;99.90;;;;;;4955134;28;20035;-72
2022/08/18 04:05:05;;;;;;;14.27;8.32;;;21.20;99.90;;;;;;4953730;28;20493;-72
2022/08/18 04:07:31;;;;;;;12.60;8.27;;;21.50;99.90;;;;;;4954949;28;20478;-72
2022/08/18 04:09:57;;;;;;;14.05;8.65;;;21.90;99.90;;;;;;4955048;28;20024;-69
2022/08/18 04:12:23;;;;;;;16.98;8.63;;;22.40;99.90;;;;;;4955521;28;20604;-72
2022/08/18 04:14:49;;;;;;;16.17;9.20;;;22.90;99.90;;;;;;4958539;28;20040;-72
2022/08/18 04:17:23;;;;;;;18.70;9.10;;;23.50;99.90;;;;;;4963944;28;20110;-71
2022/08/18 04:19:54;;;;;;;14.70;8.82;;;23.90;99.90;;;;;;4954977;28;20039;-72
2022/08/18 04:22:21;;;;;;;12.75;7.78;;;24.50;99.90;;;;;;4955135;28;20492;-72
2022/08/18 04:24:48;;;;;;;21.42;8.43;;;24.60;99.90;;;;;;4955030;28;20392;-73
2022/08/18 04:27:14;;;;;;;15.27;8.15;;;25.00;99.90;;;;;;4955189;28;20046;-73
2022/08/18 04:29:40;;;;;;;16.10;8.07;;;25.60;99.40;;;;;;4955036;28;20027;-74
2022/08/18 04:32:06;;;;;;;12.55;7.90;;;26.00;97.80;;;;;;4955058;28;20035;-74
2022/08/18 04:34:33;;;;;;;12.18;7.25;;;26.20;96.90;;;;;;4954807;28;20027;-74
2022/08/18 04:37:00;;;;;;;13.30;7.45;;;26.40;95.90;;;;;;4954723;28;20090;-74
2022/08/18 04:39:25;;;;;;;17.77;7.40;;;26.90;95.40;;;;;;4951884;28;20027;-74
2022/08/18 04:41:51;;;;;;;11.73;7.57;;;27.40;92.50;;;;;;4954199;28;20113;-73
2022/08/18 04:44:18;;;;;;;12.05;6.72;;;27.50;92.50;;;;;;4958193;28;20166;-73
2022/08/18 04:46:48;;;;;;;10.73;6.60;;;27.50;92.30;;;;;;4975300;28;20050;-73
2022/08/18 04:49:15;;;;;;;14.68;7.35;;;27.80;92.10;;;;;;4969575;28;20393;-73
2022/08/18 04:53:43;;;;;;;11.60;7.05;;;28.10;90.90;;;;;;4954833;28;20054;-74
2022/08/18 04:54:37;;;;;;;12.45;7.00;;;28.10;91.10;;;;;;4954656;28;20027;-74
2022/08/18 04:57:12;;;;;;;15.27;9.10;;;28.70;90.20;;;;;;4954655;28;20110;-73
2022/08/18 04:59:39;;;;;;;14.35;7.50;;;28.70;87.80;;;;;;4954316;28;20470;-74
2022/08/18 05:02:07;;;;;;;14.48;7.03;;;28.90;87.40;;;;;;4954306;28;20058;-72
2022/08/18 05:04:39;;;;;;;10.63;6.47;;;28.80;87.90;;;;;;4955670;28;20028;-75
2022/08/18 05:07:09;;;;;;;12.40;7.93;;;29.50;86.80;;;;;;4954782;28;20466;-73
2022/08/18 05:09:36;;;;;;;12.80;7.97;;;29.60;85.80;;;;;;4954535;28;20030;-74
2022/08/18 05:12:04;;;;;;;14.43;7.35;;;29.60;85.20;;;;;;4952159;28;20081;-75
2022/08/18 05:14:30;;;;;;;14.85;7.38;;;28.70;87.40;;;;;;4953513;28;20038;-74
2022/08/18 05:17:00;;;;;;;11.27;6.93;;;28.20;90.50;;;;;;4953686;29;20032;-73
2022/08/18 05:19:26;;;;;;;12.68;7.85;;;27.90;92.00;;;;;;4954288;28;20023;-73
2022/08/18 05:21:54;;;;;;;18.35;8.50;;;27.50;93.20;;;;;;4954173;28;20035;-73
2022/08/18 05:24:22;;;;;;;18.75;8.77;;;27.30;93.70;;;;;;4953738;28;20049;-75
2022/08/18 05:26:48;;;;;;;17.08;8.52;;;26.80;95.70;;;;;;4954369;28;20030;-74
2022/08/18 05:29:15;;;;;;;25.98;9.52;;;26.90;95.70;;;;;;4954267;28;20031;-72
2022/08/18 05:31:41;;;;;;;24.48;9.80;;;26.70;96.80;;;;;;4954605;28;20042;-65
2022/08/18 05:34:07;;;;;;;28.17;9.48;;;26.60;96.80;;;;;;4953790;28;20031;-68
2022/08/18 05:36:51;;;;;;;15.23;8.35;;;26.60;96.80;;;;;;4954110;28;20478;-71
2022/08/18 05:39:29;;;;;;;17.60;9.13;;;26.70;96.30;;;;;;4954253;28;20027;-68
2022/08/18 05:42:06;;;;;;;19.38;12.02;;;26.70;96.10;;;;;;4968571;28;20082;-65
2022/08/18 05:44:35;;;;;;;17.83;11.63;;;26.60;96.50;;;;;;4953519;29;20059;-72
2022/08/18 05:47:23;;;;;;;16.67;11.02;;;26.60;96.80;;;;;;4953981;28;20125;-73
2022/08/18 05:49:50;;;;;;;14.75;9.60;;;26.60;97.40;;;;;;4941292;28;20382;-73
2022/08/18 05:52:28;;;;;;;15.52;10.35;;;26.70;97.80;;;;;;4952246;29;20035;-71
2022/08/18 05:57:52;;;;;;;14.15;8.13;;;26.90;97.90;;;;;;4957384;28;20039;-73
2022/08/18 06:00:22;;;;;;;13.70;8.50;;;27.10;97.30;;;;;;4958008;28;20023;-75
2022/08/18 06:03:03;;;;;;;15.70;8.40;;;27.20;96.50;;;;;;4957461;28;20077;-73
2022/08/18 06:05:37;;;;;;;17.42;8.30;;;27.40;95.90;;;;;;4959463;28;20032;-72
2022/08/18 06:08:10;;;;;;;12.63;8.20;;;27.50;95.70;;;;;;4966371;28;20034;-74
2022/08/18 06:10:37;;;;;;;13.50;8.13;;;27.40;95.10;;;;;;4957371;28;20073;-71
2022/08/18 06:13:07;;;;;;;14.23;7.68;;;27.50;94.50;;;;;;4957171;28;20050;-73
2022/08/18 06:15:51;;;;;;;10.82;5.90;;;27.50;93.50;;;;;;4957274;28;20513;-68
2022/08/18 06:18:22;;;;;;;15.77;6.63;;;26.90;92.30;;;;;;4964019;28;20031;-63
2022/08/18 06:21:01;;;;;;;11.23;5.90;;;27.30;91.70;;;;;;4956754;28;20045;-74
2022/08/18 06:23:50;;;;;;;13.07;6.53;;;27.60;91.40;;;;;;4971770;28;20078;-73
2022/08/18 06:26:22;;;;;;;11.43;5.93;;;27.80;91.40;;;;;;4957175;28;20030;-71
2022/08/18 06:29:26;;;;;;;11.73;6.47;;;27.80;90.40;;;;;;4964445;28;20023;-69
2022/08/18 06:32:04;;;;;;;10.45;6.15;;;28.10;90.50;;;;;;4992827;28;20053;-73
2022/08/18 06:34:32;;;;;;;10.32;5.43;;;28.10;90.50;;;;;;4993107;28;20400;-66
2022/08/18 06:37:19;;;;;;;16.17;5.80;;;28.20;86.20;;;;;;4992284;28;20134;-73
2022/08/18 06:39:50;;;;;;;10.13;5.82;;;28.30;84.30;;;;;;4992755;28;20022;-72
2022/08/18 06:42:20;;;;;;;12.13;6.40;;;28.60;86.30;;;;;;4988106;28;20182;-73
2022/08/18 06:44:52;;;;;;;13.38;6.20;;;28.70;85.00;;;;;;4987690;28;20822;-73
2022/08/18 06:47:43;;;;;;;19.90;5.90;;;28.70;86.00;;;;;;4991845;28;20484;-73
2022/08/18 06:50:24;;;;;;;9.32;5.47;;;28.90;84.10;;;;;;4992336;28;20037;-73
2022/08/18 06:52:56;;;;;;;13.50;5.95;;;29.30;83.00;;;;;;4982708;28;20031;-73
2022/08/18 06:55:32;;;;;;;;;;;29.30;81.70;;;;;;4991794;28;20058;-72
2022/08/18 06:58:05;;;;;;;15.35;6.00;;;29.20;83.10;;;;;;4992961;28;20399;-71
2022/08/18 07:00:33;;;;;;;10.25;5.85;;;29.30;83.00;;;;;;4990326;28;20076;-70
2022/08/18 07:03:43;;;;;;;7.97;5.10;;;29.50;82.10;;;;;;4972755;28;20027;-73
2022/08/18 07:06:20;;;;;;;11.75;6.43;;;29.40;81.70;;;;;;4911537;29;20126;-73
2022/08/18 07:08:48;;;;;;;10.95;5.57;;;29.20;81.30;;;;;;4870398;29;20065;-74
2022/08/18 07:11:19;;;;;;;11.07;6.43;;;29.30;81.30;;;;;;4856150;29;20049;-74
2022/08/18 07:13:48;;;;;;;16.00;6.00;;;29.60;80.80;;;;;;4857470;29;20491;-67
2022/08/18 07:16:17;;;;;;;10.20;6.13;;;29.90;81.60;;;;;;4862794;29;20066;-74
2022/08/18 07:18:43;;;;;;;9.35;5.38;;;30.10;79.70;;;;;;4857659;29;20030;-74
2022/08/18 07:21:30;;;;;;;12.48;7.20;;;30.40;79.60;;;;;;4856155;29;20202;-74
2022/08/18 07:24:13;;;;;;;12.52;6.68;;;30.70;79.70;;;;;;4859052;29;20124;-73
2022/08/18 07:26:57;;;;;;;12.20;6.40;;;30.80;77.20;;;;;;4859333;29;20072;-73
2022/08/18 07:29:23;;;;;;;12.40;7.13;;;30.70;77.40;;;;;;4845478;29;20038;-76
2022/08/18 07:31:52;;;;;;;13.57;6.30;;;31.00;79.00;;;;;;4858507;29;20104;-76
2022/08/18 07:34:35;;;;;;;15.63;6.95;;;31.20;78.10;;;;;;4857229;29;20105;-72
2022/08/18 07:37:29;;;;;;;10.38;6.15;;;31.60;78.90;;;;;;4858123;29;20056;-75
2022/08/18 07:39:59;;;;;;;10.68;6.07;;;;;;;;;;4839219;29;20117;-71
2022/08/18 07:42:40;;;;;;;11.60;6.07;;;31.60;72.70;;;;;;4859063;29;20091;-72
2022/08/18 07:45:16;;;;;;;;;;;31.90;75.70;;;;;;4922887;29;20128;-74
2022/08/18 07:48:11;;;;;;;13.30;6.10;;;32.10;76.40;;;;;;4928334;29;20365;-73
2022/08/18 07:50:56;;;;;;;11.60;6.50;;;32.40;75.20;;;;;;4918696;29;20441;-73
2022/08/18 07:53:41;;;;;;;11.73;6.05;;;32.10;76.80;;;;;;4919057;29;20119;-72
2022/08/18 07:56:19;;;;;;;11.77;6.03;;;32.20;74.30;;;;;;4921786;29;20043;-71
2022/08/18 07:58:57;;;;;;;12.35;6.70;;;32.50;76.40;;;;;;4933300;29;20444;-73
2022/08/18 08:01:39;;;;;;;12.73;6.18;;;;;;;;;;4921522;29;20071;-73
2022/08/18 08:04:21;;;;;;;16.85;6.22;;;;;;;;;;4907937;29;20040;-72
2022/08/18 08:07:05;;;;;;;9.57;4.85;;;33.10;75.30;;;;;;4933096;29;20111;-73
2022/08/18 08:10:01;;;;;;;13.40;5.07;;;33.20;74.60;;;;;;4933260;29;20114;-70
2022/08/18 08:12:47;;;;;;;12.07;6.30;;;33.30;76.20;;;;;;4909039;29;20043;-73
2022/08/18 08:15:41;;;;;;;8.90;4.65;;;33.50;94.70;;;;;;4933128;29;20047;-74
2022/08/18 08:18:08;;;;;;;8.25;5.70;;;33.50;73.00;;;;;;4954162;28;20033;-74
2022/08/18 08:20:56;;;;;;;10.90;5.60;;;33.70;76.90;;;;;;4954965;28;20027;-69
2022/08/18 08:23:48;;;;;;;8.02;4.75;;;33.70;76.00;;;;;;4954926;28;20061;-73
2022/08/18 08:26:51;;;;;;;7.50;4.10;;;33.90;79.30;;;;;;4955156;29;20111;-73
2022/08/18 08:29:17;;;;;;;8.13;4.85;;;34.10;72.70;;;;;;4954641;29;20405;-73
2022/08/18 08:31:53;;;;;;;9.23;4.78;;;34.20;73.40;;;;;;4955149;28;20051;-73
2022/08/18 08:34:44;;;;;;;10.68;4.82;;;34.10;71.60;;;;;;4954341;28;20070;-73
2022/08/18 08:37:16;;;;;;;8.55;4.95;;;;;;;;;;4951359;28;20133;-74
2022/08/18 08:39:56;;;;;;;8.68;4.80;;;;;;;;;;4953337;28;20042;-72
2022/08/18 08:42:22;;;;;;;10.13;4.80;;;;;;;;;;4954560;28;20508;-66
2022/08/18 08:45:02;;;;;;;7.70;4.82;;;34.50;80.40;;;;;;4952846;28;20122;-75
2022/08/18 08:47:50;;;;;;;9.40;4.80;;;34.30;81.70;;;;;;4954707;28;20063;-72
2022/08/18 08:50:21;;;;;;;10.35;5.63;;;34.40;73.90;;;;;;4954617;28;20118;-75
2022/08/18 08:52:54;;;;;;;10.32;5.30;;;34.50;73.40;;;;;;4954218;28;20023;-74
2022/08/18 08:55:44;;;;;;;10.63;5.13;;;34.60;79.20;;;;;;4953209;28;20038;-75
2022/08/18 08:58:25;;;;;;;7.20;4.70;;;34.80;77.20;;;;;;4948225;28;20062;-74
2022/08/18 09:00:52;;;;;;;9.63;4.50;;;34.70;80.10;;;;;;4952572;28;20073;-73
2022/08/18 09:03:27;;;;;;;7.70;4.50;;;34.50;78.00;;;;;;4954258;28;20101;-75
2022/08/18 09:05:58;;;;;;;12.13;4.55;;;34.50;80.80;;;;;;4953275;28;20158;-75
2022/08/18 09:08:37;;;;;;;8.50;4.90;;;34.50;81.40;;;;;;4953995;28;20027;-76
2022/08/18 09:11:17;;;;;;;7.45;4.47;;;34.40;79.50;;;;;;4954593;28;20485;-73
2022/08/18 09:14:14;;;;;;;7.63;4.90;;;34.20;85.30;;;;;;4953214;28;20110;-75
2022/08/18 09:16:46;;;;;;;10.98;4.90;;;34.20;87.00;;;;;;4953990;28;20043;-74
2022/08/18 09:19:21;;;;;;;8.32;4.80;;;34.50;83.60;;;;;;4953389;28;20035;-71
2022/08/18 09:22:03;;;;;;;8.15;4.75;;;34.80;83.40;;;;;;4954116;28;20062;-70
2022/08/18 09:24:37;;;;;;;8.88;4.22;;;35.10;83.40;;;;;;4954246;28;20027;-74
2022/08/18 09:27:03;;;;;;;9.15;4.45;;;35.40;90.20;;;;;;4954265;28;20027;-73
2022/08/18 09:29:38;;;;;;;8.68;4.00;;;35.40;89.70;;;;;;4956814;28;20019;-74
2022/08/18 09:32:18;;;;;;;6.57;4.05;;;35.40;90.70;;;;;;4958018;28;20031;-75
2022/08/18 09:35:22;;;;;;;9.45;4.68;;;35.70;93.30;;;;;;4957680;28;20059;-68
2022/08/18 09:44:08;;;;;;;6.60;3.75;;;35.50;91.10;;;;;;4948036;29;20130;-73
2022/08/18 09:46:46;;;;;;;4.00;3.10;;;35.40;90.40;;;;;;4957284;28;20123;-71
2022/08/18 09:49:24;;;;;;;7.70;4.45;;;35.40;82.60;;;;;;4957522;28;20041;-67
2022/08/18 09:51:52;;;;;;;13.90;6.45;;;35.60;88.20;;;;;;4958341;28;20440;-70
2022/08/18 09:54:21;;;;;;;7.32;3.70;;;35.90;89.80;;;;;;4957662;28;20023;-72
2022/08/18 09:56:50;;;;;;;6.80;3.63;;;36.00;85.90;;;;;;4957161;28;20098;-70
2022/08/18 09:59:31;;;;;;;7.20;3.80;;;36.10;91.20;;;;;;4957634;28;20027;-70
2022/08/18 10:01:58;;;;;;;17.77;4.22;;;36.40;90.20;;;;;;4949158;29;20560;-71
2022/08/18 10:04:30;;;;;;;8.27;3.92;;;35.80;88.80;;;;;;4957522;28;20031;-71
2022/08/18 10:07:15;;;;;;;6.25;3.40;;;35.90;90.00;;;;;;4955788;28;20110;-70
2022/08/18 10:09:54;;;;;;;8.60;3.97;;;35.90;91.00;;;;;;4957242;29;20035;-70
2022/08/18 10:12:55;;;;;;;8.52;3.67;;;36.10;85.70;;;;;;4944449;29;20031;-71
2022/08/18 10:15:27;;;;;;;6.53;3.35;;;;;;;;;;4957222;28;20512;-73
2022/08/18 10:18:32;;;;;;;7.95;3.78;;;36.00;84.90;;;;;;4956690;29;20030;-74
2022/08/18 10:21:29;;;;;;;6.22;3.55;;;35.90;83.00;;;;;;4957052;28;20031;-73
2022/08/18 10:23:55;;;;;;;8.73;3.90;;;35.80;92.30;;;;;;4957095;28;20045;-71
2022/08/18 10:26:29;;;;;;;6.82;3.58;;;35.80;93.00;;;;;;4957198;28;20027;-73
2022/08/18 10:29:10;;;;;;;6.95;3.55;;;35.80;90.40;;;;;;4956461;29;20390;-71
2022/08/18 10:32:00;;;;;;;9.90;4.63;;;36.00;91.40;;;;;;4956668;28;20023;-70
2022/08/18 10:34:40;;;;;;;6.95;3.72;;;36.10;93.20;;;;;;4957139;28;20027;-71
2022/08/18 10:37:20;;;;;;;5.45;3.78;;;36.00;90.60;;;;;;4956724;28;20043;-71
2022/08/18 10:39:50;;;;;;;5.30;3.42;;;35.80;92.10;;;;;;4985936;28;20043;-73
2022/08/18 10:42:32;;;;;;;6.97;3.72;;;36.00;91.00;;;;;;4956009;28;20039;-73
2022/08/18 10:45:31;;;;;;;6.72;3.45;;;36.10;92.10;;;;;;4956414;28;20035;-69
2022/08/18 10:48:14;;;;;;;4.47;3.17;;;35.30;92.70;;;;;;4956630;28;20036;-74
2022/08/18 10:50:58;;;;;;;12.15;3.33;;;35.80;92.60;;;;;;4956749;28;20031;-73
2022/08/18 10:53:41;;;;;;;5.95;3.40;;;35.80;91.20;;;;;;4956595;28;20038;-73
2022/08/18 10:56:17;;;;;;;6.80;3.72;;;35.80;95.90;;;;;;4955964;28;20043;-75
2022/08/18 10:59:13;;;;;;;6.30;4.10;;;36.00;97.20;;;;;;4956778;28;20031;-74
2022/08/18 11:01:58;;;;;;;7.28;3.83;;;35.80;99.90;;;;;;4956293;28;20114;-72
2022/08/18 11:04:24;;;;;;;8.48;4.18;;;36.00;99.90;;;;;;4956709;28;20106;-74
2022/08/18 11:06:56;;;;;;;6.03;3.80;;;36.20;96.60;;;;;;4956226;28;20131;-74
2022/08/18 11:09:27;;;;;;;6.70;3.60;;;36.10;99.00;;;;;;4956398;28;20079;-68
2022/08/18 11:11:55;;;;;;;5.72;3.47;;;35.90;99.90;;;;;;4955794;28;20478;-72
2022/08/18 11:14:36;;;;;;;7.30;3.83;;;35.80;99.90;;;;;;4954317;29;20505;-73
2022/08/18 11:17:21;;;;;;;5.85;3.55;;;35.80;99.90;;;;;;4955016;29;20050;-72
2022/08/18 11:19:49;;;;;;;8.95;3.63;;;35.70;99.90;;;;;;4955185;28;20027;-73
2022/08/18 11:22:32;;;;;;;5.93;3.25;;;36.00;99.90;;;;;;4955391;28;20478;-73
2022/08/18 11:25:00;;;;;;;8.30;3.50;;;36.20;94.60;;;;;;4955949;28;20023;-72
2022/08/18 11:27:29;;;;;;;4.32;3.45;;;36.40;99.90;;;;;;4955312;28;20030;-74
2022/08/18 11:30:00;;;;;;;6.30;3.13;;;36.60;99.90;;;;;;4955041;28;20027;-73
2022/08/18 11:32:32;;;;;;;6.78;3.55;;;;;;;;;;4955570;28;20035;-72
2022/08/18 11:34:58;;;;;;;4.97;3.33;;;36.70;91.30;;;;;;4955552;28;20038;-73
2022/08/18 11:37:44;;;;;;;6.90;3.60;;;36.70;94.80;;;;;;4955960;28;20386;-73
2022/08/18 11:40:30;;;;;;;5.97;3.20;;;36.70;93.30;;;;;;4955695;28;20066;-71
2022/08/18 11:43:05;;;;;;;3.63;2.58;;;36.80;92.40;;;;;;4955517;28;20034;-71
2022/08/18 11:45:54;;;;;;;8.77;3.47;;;36.80;93.50;;;;;;4955091;28;20055;-71
2022/08/18 11:48:44;;;;;;;7.30;3.75;;;36.80;87.70;;;;;;4955613;28;20139;-73
2022/08/18 11:51:24;;;;;;;5.97;3.33;;;36.50;92.70;;;;;;4955084;28;20529;-74
2022/08/18 11:53:59;;;;;;;5.00;3.28;;;36.00;92.90;;;;;;4954868;28;20158;-72
2022/08/18 11:56:34;;;;;;;5.53;3.15;;;35.90;90.90;;;;;;4955073;28;20036;-73
2022/08/18 11:59:08;;;;;;;9.50;2.88;;;35.90;86.90;;;;;;4955377;28;20049;-72
2022/08/18 12:01:39;;;;;;;6.63;3.22;;;35.90;92.90;;;;;;4953028;29;20023;-74
2022/08/18 12:04:20;;;;;;;9.57;3.17;;;36.30;95.40;;;;;;4954997;28;20110;-74
2022/08/18 12:06:58;;;;;;;5.03;3.00;;;36.40;92.70;;;;;;4954967;28;20027;-74
2022/08/18 12:09:33;;;;;;;6.78;2.80;;;36.50;93.10;;;;;;4955136;28;20485;-69
2022/08/18 12:12:26;;;;;;;7.00;3.22;;;36.40;92.60;;;;;;4953371;28;20031;-74
2022/08/18 12:15:01;;;;;;;5.72;3.40;;;36.20;91.00;;;;;;4952942;28;20049;-68
2022/08/18 12:17:28;;;;;;;6.55;3.38;;;36.00;91.40;;;;;;4951544;28;20047;-74
2022/08/18 12:19:56;;;;;;;6.65;3.70;;;36.00;90.70;;;;;;4948045;28;20015;-73
2022/08/18 12:22:25;;;;;;;6.70;3.15;;;35.80;90.50;;;;;;4952721;29;20046;-69
2022/08/18 12:24:52;;;;;;;8.02;3.65;;;35.80;92.00;;;;;;4953360;28;20030;-73
2022/08/18 12:27:22;;;;;;;7.50;3.20;;;35.80;97.40;;;;;;4953476;28;20783;-72
2022/08/18 12:29:49;;;;;;;5.38;3.15;;;35.90;97.90;;;;;;4953005;28;20113;-72
2022/08/18 12:32:15;;;;;;;13.05;4.45;;;36.10;99.90;;;;;;4953017;28;20023;-72
2022/08/18 12:34:41;;;;;;;6.30;3.67;;;36.10;95.40;;;;;;4953148;28;20038;-73
2022/08/18 12:37:09;;;;;;;6.15;2.85;;;36.10;96.10;;;;;;4952994;28;20563;-73
2022/08/18 12:39:37;;;;;;;8.38;3.30;;;36.00;92.70;;;;;;4952589;28;20031;-73
2022/08/18 12:42:03;;;;;;;6.18;3.58;;;35.90;97.40;;;;;;4952227;28;20020;-72
2022/08/18 12:44:29;;;;;;;7.38;3.40;;;36.10;93.70;;;;;;4952871;28;20050;-72
2022/08/18 12:46:56;;;;;;;8.00;3.83;;;35.90;93.80;;;;;;4953029;28;20520;-73
2022/08/18 12:49:23;;;;;;;4.78;3.35;;;36.10;97.70;;;;;;4953211;28;20114;-74
2022/08/18 12:51:53;;;;;;;4.60;2.65;;;36.10;94.10;;;;;;4954416;28;20497;-73
2022/08/18 12:54:19;;;;;;;6.47;2.95;;;36.20;84.40;;;;;;4954064;28;20066;-73
2022/08/18 12:56:49;;;;;;;5.18;2.95;;;36.10;86.90;;;;;;4952891;28;20062;-73
2022/08/18 12:59:15;;;;;;;6.05;3.00;;;36.20;80.60;;;;;;4953688;28;20110;-63
2022/08/18 13:01:41;;;;;;;5.20;3.00;;;36.30;81.70;;;;;;4954155;28;20019;-73
2022/08/18 13:04:07;;;;;;;6.20;3.30;;;36.40;81.40;;;;;;4953526;28;20035;-74
2022/08/18 13:06:39;;;;;;;7.13;3.63;;;36.50;81.00;;;;;;4953032;28;20106;-73
2022/08/18 13:09:05;;;;;;;5.57;3.25;;;36.60;82.80;;;;;;4952919;28;20060;-74
2022/08/18 13:11:31;;;;;;;6.93;3.15;;;36.80;87.00;;;;;;4953213;28;20031;-73
2022/08/18 13:13:57;;;;;;;6.05;3.25;;;36.80;83.40;;;;;;4953403;28;20019;-75
2022/08/18 13:16:25;;;;;;;8.50;3.90;;;36.80;84.40;;;;;;4953543;28;20036;-72
2022/08/18 13:18:51;;;;;;;5.45;3.38;;;36.80;84.00;;;;;;4951022;28;20071;-73
2022/08/18 13:21:17;;;;;;;6.85;3.15;;;36.70;90.60;;;;;;4952309;28;20035;-73
2022/08/18 13:23:43;;;;;;;5.13;3.28;;;36.80;84.50;;;;;;4952938;28;20028;-74
2022/08/18 13:26:20;;;;;;;12.07;3.85;;;36.80;82.10;;;;;;4953195;28;20104;-74
2022/08/18 13:28:46;;;;;;;11.13;3.28;;;36.90;76.40;;;;;;4953246;28;20110;-73
2022/08/18 13:31:12;;;;;;;5.60;3.33;;;36.90;83.70;;;;;;4953569;28;20117;-74